Gamle Salten — LCQT — position and weather

sailwx.info

Track history (hours):
 
Tides and Currents Weather Stations Pressure Air Temp Water Temp Dewpoint Dewpoint Depression Visibility Wind Speed Wind Dir Waves Ship Positions

Gamle Salten

Last reported at 2016-Aug-18 13:29 UTC. Time now 2016-Aug-26 08:34 UTC.
Position N 66°23' E 012°58'.

Length 48 m; draft 5 m.

Type: Passenger vessel. MMSI: 258178000.

Date/timePositionNaut miles runAvg speedWind from/ knotsBaromVisibWave heightAir tempDewpointWater temp
2016-Aug-18 13:29N 66°23' E 012°58'29 8.8
2016-Aug-18 10:13N 66°51' E 013°18'6 8.3
2016-Aug-18 09:31N 66°55' E 013°28'8 8.2
2016-Aug-18 08:33N 67°01' E 013°42'9 9.3
2016-Aug-18 07:34N 67°07' E 013°60'9 9.4
2016-Aug-18 06:33N 67°15' E 014°14'4 4.1
2016-Aug-18 05:33N 67°17' E 014°22'0 0.0
2016-Aug-18 04:28N 67°17' E 014°22'0 0.0
2016-Aug-18 03:33N 67°17' E 014°22'0 0.0
2016-Aug-18 02:33N 67°17' E 014°22'0 0.0
2016-Aug-18 01:32N 67°17' E 014°22'0 0.0
2016-Aug-18 00:32N 67°17' E 014°22'0 0.0
2016-Aug-17 23:31N 67°17' E 014°22'0 0.0
2016-Aug-17 22:32N 67°17' E 014°22'0 0.0
2016-Aug-17 21:32N 67°17' E 014°22'0 0.0
2016-Aug-17 20:31N 67°17' E 014°22'0 0.0
2016-Aug-17 19:31N 67°17' E 014°22'0 0.0
2016-Aug-17 18:33N 67°17' E 014°22'0 0.0
2016-Aug-17 17:29N 67°17' E 014°22'0 0.0
2016-Aug-17 16:33N 67°17' E 014°22'0 0.0
2016-Aug-17 15:31N 67°17' E 014°22'0 0.0
2016-Aug-17 14:34N 67°17' E 014°22'0 0.0
2016-Aug-17 13:33N 67°17' E 014°22'0 0.0
2016-Aug-17 12:32N 67°17' E 014°22'0 0.0
2016-Aug-17 11:32N 67°17' E 014°22'0 0.0
2016-Aug-17 10:32N 67°17' E 014°22'0 0.0
2016-Aug-17 09:31N 67°17' E 014°22'0 0.0
2016-Aug-17 08:32N 67°17' E 014°22'0 0.0
2016-Aug-17 07:31N 67°17' E 014°22'0 0.0
2016-Aug-17 06:31N 67°17' E 014°22'0 0.0
2016-Aug-17 05:33N 67°17' E 014°22'0 0.0
2016-Aug-17 04:29N 67°17' E 014°22'0 0.0
2016-Aug-17 03:31N 67°17' E 014°22'0 0.0
2016-Aug-17 02:31N 67°17' E 014°22'0 0.0
2016-Aug-17 01:33N 67°17' E 014°22'0 0.0
2016-Aug-17 00:33N 67°17' E 014°22'0 0.0
2016-Aug-16 23:32N 67°17' E 014°22'0 0.0
2016-Aug-16 22:32N 67°17' E 014°22'0 0.0
2016-Aug-16 21:31N 67°17' E 014°22'0 0.0
2016-Aug-16 20:31N 67°17' E 014°22'0 0.0
2016-Aug-16 19:33N 67°17' E 014°22'0 0.0
2016-Aug-16 18:33N 67°17' E 014°22'0 0.0
2016-Aug-16 17:32N 67°17' E 014°22'0 0.0
2016-Aug-16 16:33N 67°17' E 014°22'0 0.0
2016-Aug-16 15:33N 67°17' E 014°22'0 0.0
2016-Aug-16 14:32N 67°17' E 014°22'0 0.0
2016-Aug-16 13:33N 67°17' E 014°22'0 0.0
2016-Aug-16 12:31N 67°17' E 014°22'0 0.0
2016-Aug-16 11:33N 67°17' E 014°22'0 0.0
2016-Aug-16 10:33N 67°17' E 014°22'0 0.0
2016-Aug-16 09:32N 67°17' E 014°22'0 0.0
2016-Aug-16 08:31N 67°17' E 014°22'0 0.0
2016-Aug-16 07:30N 67°17' E 014°22'0 0.0
2016-Aug-16 04:31N 67°17' E 014°22'0 0.0
2016-Aug-16 03:31N 67°17' E 014°22'0 0.0
2016-Aug-16 02:33N 67°17' E 014°22'0 0.0
2016-Aug-16 01:33N 67°17' E 014°22'0 0.0
2016-Aug-16 00:32N 67°17' E 014°22'0 0.0
2016-Aug-15 23:32N 67°17' E 014°22'0 0.0
2016-Aug-15 22:31N 67°17' E 014°22'0 0.0
2016-Aug-15 21:33N 67°17' E 014°22'0 0.0
2016-Aug-15 20:33N 67°17' E 014°22'0 0.0
2016-Aug-15 19:32N 67°17' E 014°22'0 0.0
2016-Aug-15 18:32N 67°17' E 014°22'0 0.0
2016-Aug-15 17:31N 67°17' E 014°22'0 0.0
2016-Aug-15 16:33N 67°17' E 014°22'0 0.0
2016-Aug-15 15:33N 67°17' E 014°22'0 0.0
2016-Aug-15 14:32N 67°17' E 014°22'0 0.0
2016-Aug-15 13:32N 67°17' E 014°22'0 0.0
2016-Aug-15 12:31N 67°17' E 014°22'0 0.0
2016-Aug-15 11:33N 67°17' E 014°22'0 0.0
2016-Aug-15 10:33N 67°17' E 014°22'0 0.0
2016-Aug-15 09:32N 67°17' E 014°22'0 0.0
2016-Aug-15 08:32N 67°17' E 014°22'0 0.0
2016-Aug-15 07:28N 67°17' E 014°22'0 0.0
2016-Aug-15 06:33N 67°17' E 014°22'0 0.0
2016-Aug-15 04:32N 67°17' E 014°22'0 0.0
2016-Aug-15 03:32N 67°17' E 014°22'0 0.0
2016-Aug-15 02:31N 67°17' E 014°22'0 0.0
2016-Aug-15 01:33N 67°17' E 014°22'0 0.0
2016-Aug-15 00:33N 67°17' E 014°22'0 0.0
2016-Aug-14 23:32N 67°17' E 014°22'0 0.0
2016-Aug-14 22:32N 67°17' E 014°22'0 0.0
2016-Aug-14 21:31N 67°17' E 014°22'0 0.0
2016-Aug-14 20:33N 67°17' E 014°22'0 0.0
2016-Aug-14 19:33N 67°17' E 014°22'0 0.0
2016-Aug-14 18:32N 67°17' E 014°22'0 0.0
2016-Aug-14 17:32N 67°17' E 014°22'0 0.0
2016-Aug-14 16:31N 67°17' E 014°22'0 0.0
2016-Aug-14 15:33N 67°17' E 014°22'0 0.0
2016-Aug-14 14:33N 67°17' E 014°22'0 0.0
2016-Aug-14 13:32N 67°17' E 014°22'0 0.0
2016-Aug-14 12:32N 67°17' E 014°22'0 0.0
2016-Aug-14 11:31N 67°17' E 014°22'0 0.0
2016-Aug-14 10:33N 67°17' E 014°22'0 0.0
2016-Aug-14 09:33N 67°17' E 014°22'0 0.0
2016-Aug-14 08:32N 67°17' E 014°22'0 0.0
2016-Aug-14 07:32N 67°17' E 014°22'0 0.0
2016-Aug-14 06:31N 67°17' E 014°22'0 0.0
2016-Aug-14 04:33N 67°17' E 014°22'0 0.0
2016-Aug-14 03:32N 67°17' E 014°22'0 0.0
2016-Aug-14 02:32N 67°17' E 014°22'0 0.0
2016-Aug-14 01:28N 67°17' E 014°22'0 0.0
2016-Aug-14 00:34N 67°17' E 014°22'0 0.0
2016-Aug-13 23:33N 67°17' E 014°22'0 0.0
2016-Aug-13 22:32N 67°17' E 014°22'0 0.0
2016-Aug-13 21:32N 67°17' E 014°22'0 0.0
2016-Aug-13 20:31N 67°17' E 014°22'0 0.0
2016-Aug-13 19:31N 67°17' E 014°22'0 0.0
2016-Aug-13 18:33N 67°17' E 014°22'0 0.0
2016-Aug-13 17:32N 67°17' E 014°22'0 0.0
2016-Aug-13 16:32N 67°17' E 014°22'0 0.0
2016-Aug-13 15:31N 67°17' E 014°22'0 0.0
2016-Aug-13 14:31N 67°17' E 014°22'0 0.0
2016-Aug-13 13:33N 67°17' E 014°22'0 0.0
2016-Aug-13 12:32N 67°17' E 014°22'0 0.0
2016-Aug-13 11:32N 67°17' E 014°22'0 0.0
2016-Aug-13 10:31N 67°17' E 014°22'0 0.0
2016-Aug-13 09:31N 67°17' E 014°22'0 0.0
2016-Aug-13 08:33N 67°17' E 014°22'0 0.0
2016-Aug-13 07:32N 67°17' E 014°22'0 0.0
2016-Aug-13 06:32N 67°17' E 014°22'0 0.0
2016-Aug-13 05:31N 67°17' E 014°22'0 0.0
2016-Aug-13 04:31N 67°17' E 014°22'0 0.0
2016-Aug-13 03:33N 67°17' E 014°22'0 0.0
2016-Aug-13 02:32N 67°17' E 014°22'0 0.0
2016-Aug-13 01:32N 67°17' E 014°22'0 0.0
2016-Aug-13 00:31N 67°17' E 014°22'0 0.0
2016-Aug-12 23:31N 67°17' E 014°22'0 0.0
2016-Aug-12 22:30N 67°17' E 014°22'0 0.0
2016-Aug-12 21:32N 67°17' E 014°22'0 0.0
2016-Aug-12 20:32N 67°17' E 014°22'0 0.0
2016-Aug-12 19:31N 67°17' E 014°22'0 0.0
2016-Aug-12 18:31N 67°17' E 014°22'0 0.0
2016-Aug-12 17:33N 67°17' E 014°22'0 0.0
2016-Aug-12 16:33N 67°17' E 014°22'0 0.0
2016-Aug-12 15:32N 67°17' E 014°22'0 0.0
2016-Aug-12 14:31N 67°17' E 014°22'0 0.0
2016-Aug-12 13:31N 67°17' E 014°22'0 0.0
2016-Aug-12 12:33N 67°17' E 014°22'0 0.0
2016-Aug-12 11:33N 67°17' E 014°22'0 0.0
2016-Aug-12 10:32N 67°17' E 014°22'0 0.0
2016-Aug-12 09:31N 67°17' E 014°22'0 0.0
2016-Aug-12 08:31N 67°17' E 014°22'0 0.0
2016-Aug-12 07:33N 67°17' E 014°22'0 0.0
2016-Aug-12 06:33N 67°17' E 014°22'0 0.0
2016-Aug-12 05:32N 67°17' E 014°22'0 0.0
2016-Aug-12 04:31N 67°17' E 014°22'0 0.0
2016-Aug-12 03:31N 67°17' E 014°22'0 0.0
2016-Aug-12 02:33N 67°17' E 014°22'0 0.0
2016-Aug-12 01:33N 67°17' E 014°22'0 0.0
2016-Aug-12 00:32N 67°17' E 014°22'0 0.0
2016-Aug-11 23:31N 67°17' E 014°22'0 0.0
2016-Aug-11 22:31N 67°17' E 014°22'0 0.0
2016-Aug-11 21:33N 67°17' E 014°22'0 0.0
2016-Aug-11 20:33N 67°17' E 014°22'0 0.0
2016-Aug-11 19:32N 67°17' E 014°22'0 0.0
2016-Aug-11 18:31N 67°17' E 014°22'0 0.0
2016-Aug-11 17:31N 67°17' E 014°22'0 0.0
2016-Aug-11 16:33N 67°17' E 014°22'0 0.0
2016-Aug-11 15:33N 67°17' E 014°22'0 0.0
2016-Aug-11 14:32N 67°17' E 014°22'0 0.0
2016-Aug-11 13:31N 67°17' E 014°22'0 0.0
2016-Aug-11 12:31N 67°17' E 014°22'0 0.0
2016-Aug-11 11:33N 67°17' E 014°22'0 0.0
2016-Aug-11 10:33N 67°17' E 014°22'0 0.0
2016-Aug-11 09:32N 67°17' E 014°22'0 0.0
2016-Aug-11 08:32N 67°17' E 014°22'0 0.0
2016-Aug-11 07:31N 67°17' E 014°22'0 0.0
2016-Aug-11 06:33N 67°17' E 014°22'0 0.0
2016-Aug-11 05:33N 67°17' E 014°22'0 0.0
2016-Aug-11 04:32N 67°17' E 014°22'0 0.0
2016-Aug-11 03:32N 67°17' E 014°22'0 0.0
2016-Aug-11 02:31N 67°17' E 014°22'0 0.0
2016-Aug-11 01:33N 67°17' E 014°22'0 0.0
2016-Aug-11 00:33N 67°17' E 014°22'0 0.0
2016-Aug-10 23:32N 67°17' E 014°22'0 0.0
2016-Aug-10 22:32N 67°17' E 014°22'0 0.0
2016-Aug-10 21:31N 67°17' E 014°22'0 0.0
2016-Aug-10 20:33N 67°17' E 014°22'0 0.0
2016-Aug-10 19:33N 67°17' E 014°22'0 0.0
2016-Aug-10 18:32N 67°17' E 014°22'0 0.0
2016-Aug-10 17:32N 67°17' E 014°22'0 0.0
2016-Aug-10 16:31N 67°17' E 014°22'0 0.0
2016-Aug-10 15:33N 67°17' E 014°22'0 0.0
2016-Aug-10 14:33N 67°17' E 014°22'0 0.0
2016-Aug-10 13:32N 67°17' E 014°22'0 0.0
2016-Aug-10 12:32N 67°17' E 014°22'0 0.0
2016-Aug-10 11:31N 67°17' E 014°22'0 0.0
2016-Aug-10 10:33N 67°17' E 014°22'0 0.0
2016-Aug-10 09:33N 67°17' E 014°22'0 0.0
2016-Aug-10 08:32N 67°17' E 014°22'0 0.0
2016-Aug-10 07:32N 67°17' E 014°22'0 0.0
2016-Aug-10 06:31N 67°17' E 014°22'0 0.0
2016-Aug-10 05:30N 67°17' E 014°22'0 0.0
2016-Aug-10 04:33N 67°17' E 014°22'0 0.0
2016-Aug-10 03:32N 67°17' E 014°22'0 0.0
2016-Aug-10 02:32N 67°17' E 014°22'0 0.0
2016-Aug-10 01:31N 67°17' E 014°22'0 0.0
2016-Aug-10 00:34N 67°17' E 014°22'0 0.0
2016-Aug-09 23:33N 67°17' E 014°22'0 0.0
2016-Aug-09 22:32N 67°17' E 014°22'0 0.0
2016-Aug-09 21:32N 67°17' E 014°22'0 0.0
2016-Aug-09 20:31N 67°17' E 014°22'0 0.0
2016-Aug-09 19:31N 67°17' E 014°22'0 0.0
2016-Aug-09 18:33N 67°17' E 014°22'0 0.0
2016-Aug-09 17:32N 67°17' E 014°22'0 0.0
2016-Aug-09 16:32N 67°17' E 014°22'0 0.0
2016-Aug-09 15:31N 67°17' E 014°22'0 0.0
2016-Aug-09 14:31N 67°17' E 014°22'0 0.0
2016-Aug-09 13:33N 67°17' E 014°22'0 0.0
2016-Aug-09 12:32N 67°17' E 014°22'0 0.0
2016-Aug-09 11:32N 67°17' E 014°22'0 0.0
2016-Aug-09 10:31N 67°17' E 014°22'0 0.0
2016-Aug-09 09:31N 67°17' E 014°22'0 0.0
2016-Aug-09 08:33N 67°17' E 014°22'0 0.0
2016-Aug-09 07:32N 67°17' E 014°22'0 0.0
2016-Aug-09 04:31N 67°17' E 014°22'0 0.0
2016-Aug-09 03:27N 67°17' E 014°22'0 0.0
2016-Aug-09 02:33N 67°17' E 014°22'0 0.0
2016-Aug-09 01:32N 67°17' E 014°22'0 0.0
2016-Aug-09 00:31N 67°17' E 014°22'0 0.0
2016-Aug-08 23:31N 67°17' E 014°22'0 0.0
2016-Aug-08 22:33N 67°17' E 014°22'0 0.0
2016-Aug-08 21:33N 67°17' E 014°22'0 0.0
2016-Aug-08 20:32N 67°17' E 014°22'0 0.0
2016-Aug-08 19:31N 67°17' E 014°22'0 0.0
2016-Aug-08 18:31N 67°17' E 014°22'0 0.0
2016-Aug-08 17:33N 67°17' E 014°22'0 0.0
2016-Aug-08 16:33N 67°17' E 014°22'0 0.0
2016-Aug-08 15:32N 67°17' E 014°22'0 0.0
2016-Aug-08 14:31N 67°17' E 014°22'0 0.0
2016-Aug-08 13:31N 67°17' E 014°22'  
Track history (hours):
 
Tides and Currents Weather Stations Pressure Air Temp Water Temp Dewpoint Dewpoint Depression Visibility Wind Speed Wind Dir Waves Ship Positions

Gamle Salten

Last reported at 2016-Aug-18 13:29 UTC. Time now 2016-Aug-26 08:34 UTC.
Position N 66°23' E 012°58'.

Length 48 m; draft 5 m.

Type: Passenger vessel. MMSI: 258178000.

Date/timePositionNaut miles runAvg speedWind from/ knotsBaromVisibWave heightAir tempDewpointWater temp
2016-Aug-18 13:29N 66°23' E 012°58'29 8.8
2016-Aug-18 10:13N 66°51' E 013°18'6 8.3
2016-Aug-18 09:31N 66°55' E 013°28'8 8.2
2016-Aug-18 08:33N 67°01' E 013°42'9 9.3
2016-Aug-18 07:34N 67°07' E 013°60'9 9.4
2016-Aug-18 06:33N 67°15' E 014°14'4 4.1
2016-Aug-18 05:33N 67°17' E 014°22'0 0.0
2016-Aug-18 04:28N 67°17' E 014°22'0 0.0
2016-Aug-18 03:33N 67°17' E 014°22'0 0.0
2016-Aug-18 02:33N 67°17' E 014°22'0 0.0
2016-Aug-18 01:32N 67°17' E 014°22'0 0.0
2016-Aug-18 00:32N 67°17' E 014°22'0 0.0
2016-Aug-17 23:31N 67°17' E 014°22'0 0.0
2016-Aug-17 22:32N 67°17' E 014°22'0 0.0
2016-Aug-17 21:32N 67°17' E 014°22'0 0.0
2016-Aug-17 20:31N 67°17' E 014°22'0 0.0
2016-Aug-17 19:31N 67°17' E 014°22'0 0.0
2016-Aug-17 18:33N 67°17' E 014°22'0 0.0
2016-Aug-17 17:29N 67°17' E 014°22'0 0.0
2016-Aug-17 16:33N 67°17' E 014°22'0 0.0
2016-Aug-17 15:31N 67°17' E 014°22'0 0.0
2016-Aug-17 14:34N 67°17' E 014°22'0 0.0
2016-Aug-17 13:33N 67°17' E 014°22'0 0.0
2016-Aug-17 12:32N 67°17' E 014°22'0 0.0
2016-Aug-17 11:32N 67°17' E 014°22'0 0.0
2016-Aug-17 10:32N 67°17' E 014°22'0 0.0
2016-Aug-17 09:31N 67°17' E 014°22'0 0.0
2016-Aug-17 08:32N 67°17' E 014°22'0 0.0
2016-Aug-17 07:31N 67°17' E 014°22'0 0.0
2016-Aug-17 06:31N 67°17' E 014°22'0 0.0
2016-Aug-17 05:33N 67°17' E 014°22'0 0.0
2016-Aug-17 04:29N 67°17' E 014°22'0 0.0
2016-Aug-17 03:31N 67°17' E 014°22'0 0.0
2016-Aug-17 02:31N 67°17' E 014°22'0 0.0
2016-Aug-17 01:33N 67°17' E 014°22'0 0.0
2016-Aug-17 00:33N 67°17' E 014°22'0 0.0
2016-Aug-16 23:32N 67°17' E 014°22'0 0.0
2016-Aug-16 22:32N 67°17' E 014°22'0 0.0
2016-Aug-16 21:31N 67°17' E 014°22'0 0.0
2016-Aug-16 20:31N 67°17' E 014°22'0 0.0
2016-Aug-16 19:33N 67°17' E 014°22'0 0.0
2016-Aug-16 18:33N 67°17' E 014°22'0 0.0
2016-Aug-16 17:32N 67°17' E 014°22'0 0.0
2016-Aug-16 16:33N 67°17' E 014°22'0 0.0
2016-Aug-16 15:33N 67°17' E 014°22'0 0.0
2016-Aug-16 14:32N 67°17' E 014°22'0 0.0
2016-Aug-16 13:33N 67°17' E 014°22'0 0.0
2016-Aug-16 12:31N 67°17' E 014°22'0 0.0
2016-Aug-16 11:33N 67°17' E 014°22'0 0.0
2016-Aug-16 10:33N 67°17' E 014°22'0 0.0
2016-Aug-16 09:32N 67°17' E 014°22'0 0.0
2016-Aug-16 08:31N 67°17' E 014°22'0 0.0
2016-Aug-16 07:30N 67°17' E 014°22'0 0.0
2016-Aug-16 04:31N 67°17' E 014°22'0 0.0
2016-Aug-16 03:31N 67°17' E 014°22'0 0.0
2016-Aug-16 02:33N 67°17' E 014°22'0 0.0
2016-Aug-16 01:33N 67°17' E 014°22'0 0.0
2016-Aug-16 00:32N 67°17' E 014°22'0 0.0
2016-Aug-15 23:32N 67°17' E 014°22'0 0.0
2016-Aug-15 22:31N 67°17' E 014°22'0 0.0
2016-Aug-15 21:33N 67°17' E 014°22'0 0.0
2016-Aug-15 20:33N 67°17' E 014°22'0 0.0
2016-Aug-15 19:32N 67°17' E 014°22'0 0.0
2016-Aug-15 18:32N 67°17' E 014°22'0 0.0
2016-Aug-15 17:31N 67°17' E 014°22'0 0.0
2016-Aug-15 16:33N 67°17' E 014°22'0 0.0
2016-Aug-15 15:33N 67°17' E 014°22'0 0.0
2016-Aug-15 14:32N 67°17' E 014°22'0 0.0
2016-Aug-15 13:32N 67°17' E 014°22'0 0.0
2016-Aug-15 12:31N 67°17' E 014°22'0 0.0
2016-Aug-15 11:33N 67°17' E 014°22'0 0.0
2016-Aug-15 10:33N 67°17' E 014°22'0 0.0
2016-Aug-15 09:32N 67°17' E 014°22'0 0.0
2016-Aug-15 08:32N 67°17' E 014°22'0 0.0
2016-Aug-15 07:28N 67°17' E 014°22'0 0.0
2016-Aug-15 06:33N 67°17' E 014°22'0 0.0
2016-Aug-15 04:32N 67°17' E 014°22'0 0.0
2016-Aug-15 03:32N 67°17' E 014°22'0 0.0
2016-Aug-15 02:31N 67°17' E 014°22'0 0.0
2016-Aug-15 01:33N 67°17' E 014°22'0 0.0
2016-Aug-15 00:33N 67°17' E 014°22'0 0.0
2016-Aug-14 23:32N 67°17' E 014°22'0 0.0
2016-Aug-14 22:32N 67°17' E 014°22'0 0.0
2016-Aug-14 21:31N 67°17' E 014°22'0 0.0
2016-Aug-14 20:33N 67°17' E 014°22'0 0.0
2016-Aug-14 19:33N 67°17' E 014°22'0 0.0
2016-Aug-14 18:32N 67°17' E 014°22'0 0.0
2016-Aug-14 17:32N 67°17' E 014°22'0 0.0
2016-Aug-14 16:31N 67°17' E 014°22'0 0.0
2016-Aug-14 15:33N 67°17' E 014°22'0 0.0
2016-Aug-14 14:33N 67°17' E 014°22'0 0.0
2016-Aug-14 13:32N 67°17' E 014°22'0 0.0
2016-Aug-14 12:32N 67°17' E 014°22'0 0.0
2016-Aug-14 11:31N 67°17' E 014°22'0 0.0
2016-Aug-14 10:33N 67°17' E 014°22'0 0.0
2016-Aug-14 09:33N 67°17' E 014°22'0 0.0
2016-Aug-14 08:32N 67°17' E 014°22'0 0.0
2016-Aug-14 07:32N 67°17' E 014°22'0 0.0
2016-Aug-14 06:31N 67°17' E 014°22'0 0.0
2016-Aug-14 04:33N 67°17' E 014°22'0 0.0
2016-Aug-14 03:32N 67°17' E 014°22'0 0.0
2016-Aug-14 02:32N 67°17' E 014°22'0 0.0
2016-Aug-14 01:28N 67°17' E 014°22'0 0.0
2016-Aug-14 00:34N 67°17' E 014°22'0 0.0
2016-Aug-13 23:33N 67°17' E 014°22'0 0.0
2016-Aug-13 22:32N 67°17' E 014°22'0 0.0
2016-Aug-13 21:32N 67°17' E 014°22'0 0.0
2016-Aug-13 20:31N 67°17' E 014°22'0 0.0
2016-Aug-13 19:31N 67°17' E 014°22'0 0.0
2016-Aug-13 18:33N 67°17' E 014°22'0 0.0
2016-Aug-13 17:32N 67°17' E 014°22'0 0.0
2016-Aug-13 16:32N 67°17' E 014°22'0 0.0
2016-Aug-13 15:31N 67°17' E 014°22'0 0.0
2016-Aug-13 14:31N 67°17' E 014°22'0 0.0
2016-Aug-13 13:33N 67°17' E 014°22'0 0.0
2016-Aug-13 12:32N 67°17' E 014°22'0 0.0
2016-Aug-13 11:32N 67°17' E 014°22'0 0.0
2016-Aug-13 10:31N 67°17' E 014°22'0 0.0
2016-Aug-13 09:31N 67°17' E 014°22'0 0.0
2016-Aug-13 08:33N 67°17' E 014°22'0 0.0
2016-Aug-13 07:32N 67°17' E 014°22'0 0.0
2016-Aug-13 06:32N 67°17' E 014°22'0 0.0
2016-Aug-13 05:31N 67°17' E 014°22'0 0.0
2016-Aug-13 04:31N 67°17' E 014°22'0 0.0
2016-Aug-13 03:33N 67°17' E 014°22'0 0.0
2016-Aug-13 02:32N 67°17' E 014°22'0 0.0
2016-Aug-13 01:32N 67°17' E 014°22'0 0.0
2016-Aug-13 00:31N 67°17' E 014°22'0 0.0
2016-Aug-12 23:31N 67°17' E 014°22'0 0.0
2016-Aug-12 22:30N 67°17' E 014°22'0 0.0
2016-Aug-12 21:32N 67°17' E 014°22'0 0.0
2016-Aug-12 20:32N 67°17' E 014°22'0 0.0
2016-Aug-12 19:31N 67°17' E 014°22'0 0.0
2016-Aug-12 18:31N 67°17' E 014°22'0 0.0
2016-Aug-12 17:33N 67°17' E 014°22'0 0.0
2016-Aug-12 16:33N 67°17' E 014°22'0 0.0
2016-Aug-12 15:32N 67°17' E 014°22'0 0.0
2016-Aug-12 14:31N 67°17' E 014°22'0 0.0
2016-Aug-12 13:31N 67°17' E 014°22'0 0.0
2016-Aug-12 12:33N 67°17' E 014°22'0 0.0
2016-Aug-12 11:33N 67°17' E 014°22'0 0.0
2016-Aug-12 10:32N 67°17' E 014°22'0 0.0
2016-Aug-12 09:31N 67°17' E 014°22'0 0.0
2016-Aug-12 08:31N 67°17' E 014°22'0 0.0
2016-Aug-12 07:33N 67°17' E 014°22'0 0.0
2016-Aug-12 06:33N 67°17' E 014°22'0 0.0
2016-Aug-12 05:32N 67°17' E 014°22'0 0.0
2016-Aug-12 04:31N 67°17' E 014°22'0 0.0
2016-Aug-12 03:31N 67°17' E 014°22'0 0.0
2016-Aug-12 02:33N 67°17' E 014°22'0 0.0
2016-Aug-12 01:33N 67°17' E 014°22'0 0.0
2016-Aug-12 00:32N 67°17' E 014°22'0 0.0
2016-Aug-11 23:31N 67°17' E 014°22'0 0.0
2016-Aug-11 22:31N 67°17' E 014°22'0 0.0
2016-Aug-11 21:33N 67°17' E 014°22'0 0.0
2016-Aug-11 20:33N 67°17' E 014°22'0 0.0
2016-Aug-11 19:32N 67°17' E 014°22'0 0.0
2016-Aug-11 18:31N 67°17' E 014°22'0 0.0
2016-Aug-11 17:31N 67°17' E 014°22'0 0.0
2016-Aug-11 16:33N 67°17' E 014°22'0 0.0
2016-Aug-11 15:33N 67°17' E 014°22'0 0.0
2016-Aug-11 14:32N 67°17' E 014°22'0 0.0
2016-Aug-11 13:31N 67°17' E 014°22'0 0.0
2016-Aug-11 12:31N 67°17' E 014°22'0 0.0
2016-Aug-11 11:33N 67°17' E 014°22'0 0.0
2016-Aug-11 10:33N 67°17' E 014°22'0 0.0
2016-Aug-11 09:32N 67°17' E 014°22'0 0.0
2016-Aug-11 08:32N 67°17' E 014°22'0 0.0
2016-Aug-11 07:31N 67°17' E 014°22'0 0.0
2016-Aug-11 06:33N 67°17' E 014°22'0 0.0
2016-Aug-11 05:33N 67°17' E 014°22'0 0.0
2016-Aug-11 04:32N 67°17' E 014°22'0 0.0
2016-Aug-11 03:32N 67°17' E 014°22'0 0.0
2016-Aug-11 02:31N 67°17' E 014°22'0 0.0
2016-Aug-11 01:33N 67°17' E 014°22'0 0.0
2016-Aug-11 00:33N 67°17' E 014°22'0 0.0
2016-Aug-10 23:32N 67°17' E 014°22'0 0.0
2016-Aug-10 22:32N 67°17' E 014°22'0 0.0
2016-Aug-10 21:31N 67°17' E 014°22'0 0.0
2016-Aug-10 20:33N 67°17' E 014°22'0 0.0
2016-Aug-10 19:33N 67°17' E 014°22'0 0.0
2016-Aug-10 18:32N 67°17' E 014°22'0 0.0
2016-Aug-10 17:32N 67°17' E 014°22'0 0.0
2016-Aug-10 16:31N 67°17' E 014°22'0 0.0
2016-Aug-10 15:33N 67°17' E 014°22'0 0.0
2016-Aug-10 14:33N 67°17' E 014°22'0 0.0
2016-Aug-10 13:32N 67°17' E 014°22'0 0.0
2016-Aug-10 12:32N 67°17' E 014°22'0 0.0
2016-Aug-10 11:31N 67°17' E 014°22'0 0.0
2016-Aug-10 10:33N 67°17' E 014°22'0 0.0
2016-Aug-10 09:33N 67°17' E 014°22'0 0.0
2016-Aug-10 08:32N 67°17' E 014°22'0 0.0
2016-Aug-10 07:32N 67°17' E 014°22'0 0.0
2016-Aug-10 06:31N 67°17' E 014°22'0 0.0
2016-Aug-10 05:30N 67°17' E 014°22'0 0.0
2016-Aug-10 04:33N 67°17' E 014°22'0 0.0
2016-Aug-10 03:32N 67°17' E 014°22'0 0.0
2016-Aug-10 02:32N 67°17' E 014°22'0 0.0
2016-Aug-10 01:31N 67°17' E 014°22'0 0.0
2016-Aug-10 00:34N 67°17' E 014°22'0 0.0
2016-Aug-09 23:33N 67°17' E 014°22'0 0.0
2016-Aug-09 22:32N 67°17' E 014°22'0 0.0
2016-Aug-09 21:32N 67°17' E 014°22'0 0.0
2016-Aug-09 20:31N 67°17' E 014°22'0 0.0
2016-Aug-09 19:31N 67°17' E 014°22'0 0.0
2016-Aug-09 18:33N 67°17' E 014°22'0 0.0
2016-Aug-09 17:32N 67°17' E 014°22'0 0.0
2016-Aug-09 16:32N 67°17' E 014°22'0 0.0
2016-Aug-09 15:31N 67°17' E 014°22'0 0.0
2016-Aug-09 14:31N 67°17' E 014°22'0 0.0
2016-Aug-09 13:33N 67°17' E 014°22'0 0.0
2016-Aug-09 12:32N 67°17' E 014°22'0 0.0
2016-Aug-09 11:32N 67°17' E 014°22'0 0.0
2016-Aug-09 10:31N 67°17' E 014°22'0 0.0
2016-Aug-09 09:31N 67°17' E 014°22'0 0.0
2016-Aug-09 08:33N 67°17' E 014°22'0 0.0
2016-Aug-09 07:32N 67°17' E 014°22'0 0.0
2016-Aug-09 04:31N 67°17' E 014°22'0 0.0
2016-Aug-09 03:27N 67°17' E 014°22'0 0.0
2016-Aug-09 02:33N 67°17' E 014°22'0 0.0
2016-Aug-09 01:32N 67°17' E 014°22'0 0.0
2016-Aug-09 00:31N 67°17' E 014°22'0 0.0
2016-Aug-08 23:31N 67°17' E 014°22'0 0.0
2016-Aug-08 22:33N 67°17' E 014°22'0 0.0
2016-Aug-08 21:33N 67°17' E 014°22'0 0.0
2016-Aug-08 20:32N 67°17' E 014°22'0 0.0
2016-Aug-08 19:31N 67°17' E 014°22'0 0.0
2016-Aug-08 18:31N 67°17' E 014°22'0 0.0
2016-Aug-08 17:33N 67°17' E 014°22'0 0.0
2016-Aug-08 16:33N 67°17' E 014°22'0 0.0
2016-Aug-08 15:32N 67°17' E 014°22'0 0.0
2016-Aug-08 14:31N 67°17' E 014°22'0 0.0
2016-Aug-08 13:31N 67°17' E 014°22'  

Dump ship's entire track history